Portada
METAR-TAF:

METAR-TAF

Aeroports :

La Paz, Bolívia

latitud: 16-31S, longitud: 068-11W, altitud: 4058 m

Observació

L'informe es va fer fa 50 minuts, a les 08:00 UTC
Vent 2 kt amb direcció variable
Temperatura -4°C
Humitat 68%
Pressió 1039 hPa
Visibilitat 10 km o més

METAR: SLLP 050800Z VRB02KT 9999 NSC M04/M09 Q1039

Hora: 04:50 (08:50 UTC)

Pronòstic

L'informe es va fer fa 4 hores i 50 minuts, a les 04:00 UTC
Pronòstic vàlid del 05 a les 06 UTC al 06 a les 06 UTC
Vent 9 kt del Est
Visibilitat 10 km o més
Escasses núvols a una alçada de 1500 ft
Evolucionant progressivament
l' 05 a les 12 UTC al 05 a les 15 UTC
Núvols disperses a una alçada de 1500 ft
Cel ennuvolat a una alçada de 7000 ft

TAF: SLLP 050400Z 0506/0606 10009KT 9999 FEW015 TX14/0519Z TNM04/0511Z BECMG 0512/0515 SCT015 BKN070

Observacions i pronòstics meteorològics de més de 4000 aeroports (METAR i TAF).

Les estacions disponibles són els punts grocs i vermells al mapa.

Posi el ratolí al punt desitjat per veure el nom de l'estació.

Feu clic per veure les observacions i els pronòstics meteorològics.

Per canviar el mapa: feu clic els botons verds amb una creu de color negre per apropar; al botó verd amb un guió per allunyar la imatge; o en les fletxes verdes per a mapes adjacents.


METAR-TAF: